Evia Star — SX8621 — position and weather

sailwx.info

Track history (hours):
 
Tides and Currents Weather Stations Pressure Air Temp Water Temp Dewpoint Dewpoint Depression Visibility Wind Speed Wind Dir Waves Ship Positions

Evia Star

Last reported at 2018-Jun-21 16:02 UTC. Time now 2018-Jun-22 03:44 UTC.
Position N 38°02' E 024°10'.

Length 87 m; draft 3.6 m.

Type: Ship. MMSI: 237363700.

Date/timePositionNaut miles runAvg speedWind from/ knotsBaromVisibWave heightAir tempDewpointWater temp
2018-Jun-21 16:02N 38°02' E 024°10'313.9
2018-Jun-21 15:51N 38°02' E 024°07'4 4.2
2018-Jun-21 14:59N 38°01' E 024°02'4 1.7
2018-Jun-21 12:24N 38°02' E 024°08'4 4.4
2018-Jun-21 11:28N 38°01' E 024°02'5 1.0
2018-Jun-21 05:59N 38°02' E 024°09'6 4.8
2018-Jun-21 04:47N 38°01' E 024°02'6 0.5
2018-Jun-20 15:59N 38°02' E 024°09'6 5.5
2018-Jun-20 14:58N 38°01' E 024°02'4 1.4
2018-Jun-20 12:22N 38°02' E 024°07'4 4.4
2018-Jun-20 11:31N 38°01' E 024°02'015.0
2018-Jun-20 11:30N 38°01' E 024°02'5 1.0
2018-Jun-20 05:59N 38°02' E 024°09'5 4.4
2018-Jun-20 04:46N 38°01' E 024°02'4 0.3
2018-Jun-19 15:55N 38°02' E 024°08'4 4.8
2018-Jun-19 15:00N 38°01' E 024°02'5 2.0
2018-Jun-19 12:28N 38°02' E 024°09'5 5.5
2018-Jun-19 11:30N 38°01' E 024°02'5 0.9
2018-Jun-19 05:58N 38°02' E 024°09'5 4.6
2018-Jun-19 04:50N 38°01' E 024°02'4 0.3
2018-Jun-18 15:51N 38°02' E 024°07'4 4.4
2018-Jun-18 15:01N 38°01' E 024°02'014.2
2018-Jun-18 15:00N 38°01' E 024°02'4 1.5
2018-Jun-18 12:23N 38°02' E 024°07'5 1.0
2018-Jun-18 07:33N 38°01' E 024°01'114.6
2018-Jun-18 07:30N 38°01' E 024°02'  
2018-Jun-15 05:45N 38°02' E 024°05'2 1.8
2018-Jun-15 04:40N 38°01' E 024°02'314.8
2018-Jun-15 04:29N 38°02' E 024°06'1 0.1
2018-Jun-14 15:52N 38°02' E 024°07'5 5.7
2018-Jun-14 15:03N 38°01' E 024°01'114.4
2018-Jun-14 15:00N 38°01' E 024°02'6 2.5
2018-Jun-14 12:32N 38°02' E 024°10'214.5
2018-Jun-14 12:23N 38°02' E 024°07'4 5.1
2018-Jun-14 11:31N 38°01' E 024°02'014.7
2018-Jun-14 11:30N 38°01' E 024°02'4 0.2
2018-Jun-13 12:25N 38°02' E 024°08'5 6.0
2018-Jun-13 11:34N 38°01' E 024°01'114.3
2018-Jun-13 11:30N 38°01' E 024°02'4 0.7
2018-Jun-13 05:57N 38°02' E 024°08'1 0.1
2018-Jun-12 15:49N 38°02' E 024°06'3 3.9
2018-Jun-12 14:57N 38°01' E 024°02'4 1.5
2018-Jun-12 12:21N 38°02' E 024°07'3 3.6
2018-Jun-12 11:29N 38°01' E 024°03'5 0.9
2018-Jun-12 06:00N 38°02' E 024°09'5 4.4
2018-Jun-12 04:48N 38°01' E 024°02'414.7
2018-Jun-12 04:30N 38°02' E 024°07'  
Track history (hours):
 
Tides and Currents Weather Stations Pressure Air Temp Water Temp Dewpoint Dewpoint Depression Visibility Wind Speed Wind Dir Waves Ship Positions

Evia Star

Last reported at 2018-Jun-21 16:02 UTC. Time now 2018-Jun-22 03:44 UTC.
Position N 38°02' E 024°10'.

Length 87 m; draft 3.6 m.

Type: Ship. MMSI: 237363700.

Date/timePositionNaut miles runAvg speedWind from/ knotsBaromVisibWave heightAir tempDewpointWater temp
2018-Jun-21 16:02N 38°02' E 024°10'313.9
2018-Jun-21 15:51N 38°02' E 024°07'4 4.2
2018-Jun-21 14:59N 38°01' E 024°02'4 1.7
2018-Jun-21 12:24N 38°02' E 024°08'4 4.4
2018-Jun-21 11:28N 38°01' E 024°02'5 1.0
2018-Jun-21 05:59N 38°02' E 024°09'6 4.8
2018-Jun-21 04:47N 38°01' E 024°02'6 0.5
2018-Jun-20 15:59N 38°02' E 024°09'6 5.5
2018-Jun-20 14:58N 38°01' E 024°02'4 1.4
2018-Jun-20 12:22N 38°02' E 024°07'4 4.4
2018-Jun-20 11:31N 38°01' E 024°02'015.0
2018-Jun-20 11:30N 38°01' E 024°02'5 1.0
2018-Jun-20 05:59N 38°02' E 024°09'5 4.4
2018-Jun-20 04:46N 38°01' E 024°02'4 0.3
2018-Jun-19 15:55N 38°02' E 024°08'4 4.8
2018-Jun-19 15:00N 38°01' E 024°02'5 2.0
2018-Jun-19 12:28N 38°02' E 024°09'5 5.5
2018-Jun-19 11:30N 38°01' E 024°02'5 0.9
2018-Jun-19 05:58N 38°02' E 024°09'5 4.6
2018-Jun-19 04:50N 38°01' E 024°02'4 0.3
2018-Jun-18 15:51N 38°02' E 024°07'4 4.4
2018-Jun-18 15:01N 38°01' E 024°02'014.2
2018-Jun-18 15:00N 38°01' E 024°02'4 1.5
2018-Jun-18 12:23N 38°02' E 024°07'5 1.0
2018-Jun-18 07:33N 38°01' E 024°01'114.6
2018-Jun-18 07:30N 38°01' E 024°02'  
2018-Jun-15 05:45N 38°02' E 024°05'2 1.8
2018-Jun-15 04:40N 38°01' E 024°02'314.8
2018-Jun-15 04:29N 38°02' E 024°06'1 0.1
2018-Jun-14 15:52N 38°02' E 024°07'5 5.7
2018-Jun-14 15:03N 38°01' E 024°01'114.4
2018-Jun-14 15:00N 38°01' E 024°02'6 2.5
2018-Jun-14 12:32N 38°02' E 024°10'214.5
2018-Jun-14 12:23N 38°02' E 024°07'4 5.1
2018-Jun-14 11:31N 38°01' E 024°02'014.7
2018-Jun-14 11:30N 38°01' E 024°02'4 0.2
2018-Jun-13 12:25N 38°02' E 024°08'5 6.0
2018-Jun-13 11:34N 38°01' E 024°01'114.3
2018-Jun-13 11:30N 38°01' E 024°02'4 0.7
2018-Jun-13 05:57N 38°02' E 024°08'1 0.1
2018-Jun-12 15:49N 38°02' E 024°06'3 3.9
2018-Jun-12 14:57N 38°01' E 024°02'4 1.5
2018-Jun-12 12:21N 38°02' E 024°07'3 3.6
2018-Jun-12 11:29N 38°01' E 024°03'5 0.9
2018-Jun-12 06:00N 38°02' E 024°09'5 4.4
2018-Jun-12 04:48N 38°01' E 024°02'414.7
2018-Jun-12 04:30N 38°02' E 024°07'  

Dump ship's entire track history